createdAt,value
2023-02-03T00:00:07.583Z,99.90
2023-02-03T00:02:35.494Z,99.90
2023-02-03T00:05:03.970Z,99.90
2023-02-03T00:07:32.171Z,99.90
2023-02-03T00:10:01.618Z,99.90
2023-02-03T00:12:30.181Z,99.90
2023-02-03T00:14:58.123Z,99.80
2023-02-03T00:17:26.387Z,99.90
2023-02-03T00:19:54.506Z,99.80
2023-02-03T00:22:22.461Z,99.90
2023-02-03T00:24:50.389Z,99.90
2023-02-03T00:27:19.637Z,99.90
2023-02-03T00:29:47.516Z,99.60
2023-02-03T00:32:15.525Z,99.90
2023-02-03T00:34:43.530Z,99.60
2023-02-03T00:37:13.886Z,99.30
2023-02-03T00:39:41.831Z,99.30
2023-02-03T00:42:09.703Z,99.20
2023-02-03T00:44:38.995Z,99.30
2023-02-03T00:47:07.002Z,99.10
2023-02-03T00:49:34.936Z,99.10
2023-02-03T00:52:02.860Z,99.00
2023-02-03T00:54:32.619Z,99.00
2023-02-03T00:57:01.379Z,98.80
2023-02-03T00:59:29.336Z,98.90
2023-02-03T01:01:58.632Z,98.80
2023-02-03T01:04:26.884Z,99.00
2023-02-03T01:06:57.363Z,98.80
2023-02-03T01:09:25.611Z,98.90
2023-02-03T01:11:53.528Z,98.90
2023-02-03T01:14:21.459Z,98.90
2023-02-03T01:16:49.421Z,98.90
2023-02-03T01:19:18.884Z,99.00
2023-02-03T01:21:46.784Z,98.90
2023-02-03T01:24:15.448Z,99.20
2023-02-03T01:26:43.466Z,99.00
2023-02-03T01:29:11.377Z,98.90
2023-02-03T01:31:42.166Z,99.10
2023-02-03T01:34:14.219Z,98.90
2023-02-03T01:36:43.591Z,98.90
2023-02-03T01:39:11.908Z,99.00
2023-02-03T01:41:41.193Z,99.00
2023-02-03T01:44:40.782Z,99.10
2023-02-03T01:47:16.107Z,99.10
2023-02-03T01:49:49.199Z,99.10
2023-02-03T01:52:19.025Z,99.20
2023-02-03T01:54:49.972Z,99.20
2023-02-03T01:57:22.919Z,99.40
2023-02-03T01:59:53.580Z,99.30
2023-02-03T02:02:21.869Z,99.30
2023-02-03T02:04:56.767Z,99.40
2023-02-03T02:07:26.407Z,99.40
2023-02-03T02:09:55.850Z,99.40
2023-02-03T02:12:23.808Z,99.40
2023-02-03T02:14:51.801Z,99.40
2023-02-03T02:17:44.459Z,99.30
2023-02-03T02:20:33.658Z,99.40
2023-02-03T02:23:34.366Z,99.50
2023-02-03T02:26:29.814Z,99.70
2023-02-03T02:29:14.545Z,99.60
2023-02-03T02:31:54.313Z,99.70
2023-02-03T02:34:29.232Z,99.80
2023-02-03T02:37:05.849Z,99.90
2023-02-03T02:39:41.959Z,99.90
2023-02-03T02:42:16.993Z,99.90
2023-02-03T02:44:50.872Z,99.90
2023-02-03T02:47:21.906Z,99.90
2023-02-03T02:49:56.431Z,99.90
2023-02-03T02:52:27.781Z,99.90
2023-02-03T02:54:59.318Z,99.90
2023-02-03T02:57:29.932Z,99.90
2023-02-03T02:59:57.962Z,99.90
2023-02-03T03:02:33.848Z,99.90
2023-02-03T03:05:04.927Z,99.90
2023-02-03T03:07:37.157Z,99.90
2023-02-03T03:10:11.218Z,99.90
2023-02-03T03:12:46.415Z,99.90
2023-02-03T03:15:17.775Z,99.90
2023-02-03T03:17:50.899Z,99.90
2023-02-03T03:20:22.281Z,99.90
2023-02-03T03:22:55.951Z,99.90
2023-02-03T03:25:29.859Z,99.90
2023-02-03T03:28:02.424Z,99.90
2023-02-03T03:30:35.107Z,99.90
2023-02-03T03:33:05.548Z,99.90
2023-02-03T03:35:40.907Z,99.90
2023-02-03T03:38:13.798Z,99.90
2023-02-03T03:40:49.759Z,99.90
2023-02-03T03:43:21.036Z,99.90
2023-02-03T03:45:55.946Z,99.90
2023-02-03T03:48:30.068Z,99.90
2023-02-03T03:51:03.132Z,99.90
2023-02-03T03:53:34.128Z,99.90
2023-02-03T03:56:04.618Z,99.90
2023-02-03T03:58:33.825Z,99.90
2023-02-03T04:01:03.937Z,99.90
2023-02-03T04:03:38.986Z,99.90
2023-02-03T04:06:07.536Z,99.90
2023-02-03T04:08:35.457Z,99.90
2023-02-03T04:11:03.445Z,99.90
2023-02-03T04:13:31.341Z,99.90
2023-02-03T04:15:59.815Z,99.90
2023-02-03T04:18:27.748Z,99.90
2023-02-03T04:20:57.053Z,99.90
2023-02-03T04:23:24.990Z,99.90
2023-02-03T04:25:52.929Z,99.90
2023-02-03T04:28:20.840Z,99.90
2023-02-03T04:30:48.902Z,99.90
2023-02-03T04:33:16.840Z,99.90
2023-02-03T04:35:44.836Z,99.90
2023-02-03T04:38:14.151Z,99.90
2023-02-03T04:40:42.604Z,99.90
2023-02-03T04:43:10.579Z,99.90
2023-02-03T04:45:38.659Z,99.90
2023-02-03T04:48:07.096Z,99.90
2023-02-03T04:50:35.098Z,99.90
2023-02-03T04:53:03.605Z,99.90
2023-02-03T04:55:32.957Z,99.90
2023-02-03T04:58:02.099Z,99.90
2023-02-03T05:00:30.722Z,99.90
2023-02-03T05:02:58.914Z,99.90
2023-02-03T05:05:27.207Z,99.90
2023-02-03T05:07:55.123Z,99.90
2023-02-03T05:10:23.391Z,99.90
2023-02-03T05:12:53.016Z,99.90
2023-02-03T05:15:23.860Z,99.90
2023-02-03T05:17:53.150Z,99.90
2023-02-03T05:20:21.407Z,99.90
2023-02-03T05:22:49.320Z,99.90
2023-02-03T05:25:17.410Z,99.90
2023-02-03T05:27:45.349Z,99.90
2023-02-03T05:30:14.960Z,99.90
2023-02-03T05:32:42.908Z,99.90
2023-02-03T05:35:11.340Z,99.90
2023-02-03T05:37:39.724Z,99.90
2023-02-03T05:40:29.428Z,99.90
2023-02-03T05:42:57.628Z,99.90
2023-02-03T05:45:26.943Z,99.90
2023-02-03T05:47:54.875Z,99.90
2023-02-03T05:50:22.882Z,99.90
2023-02-03T05:52:50.808Z,99.90
2023-02-03T05:55:19.086Z,99.90
2023-02-03T05:57:48.131Z,99.90
2023-02-03T06:00:16.772Z,99.90
2023-02-03T06:02:46.165Z,99.90
2023-02-03T06:05:14.040Z,99.90
2023-02-03T06:07:41.935Z,99.90
2023-02-03T06:10:10.741Z,99.90
2023-02-03T06:12:38.929Z,99.90
2023-02-03T06:15:07.452Z,99.90
2023-02-03T06:17:36.055Z,99.90
2023-02-03T06:20:05.652Z,99.90
2023-02-03T06:22:33.839Z,99.90
2023-02-03T06:25:01.836Z,99.90
2023-02-03T06:27:29.765Z,99.90
2023-02-03T06:29:57.780Z,99.90
2023-02-03T06:32:25.804Z,99.90
2023-02-03T06:34:53.727Z,99.90
2023-02-03T06:37:24.616Z,99.90
2023-02-03T06:39:53.084Z,99.90
2023-02-03T06:42:21.137Z,99.90
2023-02-03T06:44:49.027Z,99.90
2023-02-03T06:47:16.915Z,99.90
2023-02-03T06:49:44.817Z,99.90
2023-02-03T06:52:12.839Z,99.90
2023-02-03T06:54:42.313Z,99.90
2023-02-03T06:57:10.691Z,99.90
2023-02-03T06:59:38.564Z,99.90
2023-02-03T07:02:06.573Z,99.90
2023-02-03T07:04:34.471Z,99.90
2023-02-03T07:07:02.392Z,99.90
2023-02-03T07:09:30.277Z,99.90
2023-02-03T07:11:59.768Z,99.90
2023-02-03T07:14:31.715Z,99.90
2023-02-03T07:16:59.657Z,99.90
2023-02-03T07:19:27.591Z,99.90
2023-02-03T07:21:55.753Z,99.90
2023-02-03T07:24:23.752Z,99.90
2023-02-03T07:26:51.722Z,99.90
2023-02-03T07:29:21.099Z,99.90
2023-02-03T07:31:49.246Z,99.90
2023-02-03T07:34:17.326Z,99.90
2023-02-03T07:36:45.313Z,99.90
2023-02-03T07:39:13.265Z,99.90
2023-02-03T07:41:41.369Z,99.90
2023-02-03T07:44:10.020Z,99.90
2023-02-03T07:46:44.630Z,99.90
2023-02-03T07:49:13.203Z,99.90
2023-02-03T07:51:41.732Z,99.90
2023-02-03T07:54:09.698Z,99.90
2023-02-03T07:56:37.760Z,99.90
2023-02-03T07:59:05.714Z,99.90
2023-02-03T08:01:34.167Z,99.90
2023-02-03T08:04:05.416Z,99.90
2023-02-03T08:06:34.023Z,99.90
2023-02-03T08:09:02.004Z,99.90
2023-02-03T08:11:29.980Z,99.90
2023-02-03T08:13:58.017Z,99.90
2023-02-03T08:16:26.066Z,99.90
2023-02-03T08:18:54.040Z,99.90
2023-02-03T08:21:23.357Z,99.90
2023-02-03T08:23:51.309Z,99.90
2023-02-03T08:26:19.239Z,99.90
2023-02-03T08:28:49.940Z,99.90
2023-02-03T08:31:18.455Z,99.90
2023-02-03T08:33:46.580Z,99.90
2023-02-03T08:36:14.728Z,99.90
2023-02-03T08:38:45.232Z,99.90
2023-02-03T08:41:15.362Z,99.90
2023-02-03T08:43:43.625Z,99.90
2023-02-03T08:46:13.137Z,99.90
2023-02-03T08:48:41.403Z,99.90
2023-02-03T08:51:13.959Z,99.90
2023-02-03T08:53:42.052Z,99.90
2023-02-03T08:56:13.100Z,99.90
2023-02-03T08:58:41.054Z,99.90
2023-02-03T09:01:10.764Z,99.90
2023-02-03T09:03:39.300Z,99.90
2023-02-03T09:06:08.520Z,99.90
2023-02-03T09:08:36.518Z,99.90
2023-02-03T09:11:09.064Z,99.90
2023-02-03T09:13:38.882Z,99.90
2023-02-03T09:16:08.013Z,99.90
2023-02-03T09:18:36.384Z,99.90
2023-02-03T09:21:05.347Z,99.90
2023-02-03T09:23:33.486Z,99.90
2023-02-03T09:26:03.329Z,99.90
2023-02-03T09:28:31.639Z,99.90
2023-02-03T09:31:02.832Z,99.90
2023-02-03T09:33:31.032Z,99.90
2023-02-03T09:36:00.155Z,99.90
2023-02-03T09:38:29.509Z,99.90
2023-02-03T09:41:11.360Z,99.90
2023-02-03T09:43:45.235Z,99.90
2023-02-03T09:46:19.859Z,99.90
2023-02-03T09:48:50.353Z,99.90
2023-02-03T09:51:21.597Z,99.90
2023-02-03T09:53:55.860Z,99.90
2023-02-03T09:56:30.708Z,99.90
2023-02-03T09:58:59.257Z,99.90
2023-02-03T10:01:35.925Z,99.90
2023-02-03T10:04:13.585Z,99.90
2023-02-03T10:06:45.769Z,99.90
2023-02-03T10:09:31.864Z,99.90
2023-02-03T10:12:21.292Z,99.90
2023-02-03T10:15:03.878Z,99.90
2023-02-03T10:17:38.841Z,99.90
2023-02-03T10:20:15.396Z,99.90
2023-02-03T10:22:46.915Z,99.90
2023-02-03T10:25:24.690Z,99.90
2023-02-03T10:27:54.281Z,99.90
2023-02-03T10:30:24.383Z,99.90
2023-02-03T10:32:56.964Z,99.90
2023-02-03T10:35:36.159Z,99.90
2023-02-03T10:38:07.364Z,99.90
2023-02-03T10:40:35.381Z,99.90
2023-02-03T10:43:20.952Z,99.90
2023-02-03T10:45:48.993Z,99.90
2023-02-03T10:48:20.076Z,99.90
2023-02-03T10:50:51.242Z,99.90
2023-02-03T10:53:25.502Z,99.90
2023-02-03T10:56:03.171Z,99.90
2023-02-03T10:58:33.669Z,99.90
2023-02-03T11:01:09.748Z,99.90
2023-02-03T11:03:40.217Z,99.90
2023-02-03T11:06:11.433Z,99.90
2023-02-03T11:08:41.147Z,99.90
2023-02-03T11:11:13.877Z,99.90
2023-02-03T11:13:41.933Z,99.90
2023-02-03T11:16:16.526Z,99.90
2023-02-03T11:18:54.561Z,99.90
2023-02-03T11:21:24.948Z,99.90
2023-02-03T11:24:05.899Z,99.90
2023-02-03T11:26:36.519Z,99.90
2023-02-03T11:29:06.354Z,99.90
2023-02-03T11:31:36.412Z,99.90
2023-02-03T11:34:08.789Z,99.90
2023-02-03T11:36:36.843Z,99.90
2023-02-03T11:39:12.023Z,99.90
2023-02-03T11:41:40.858Z,99.90
2023-02-03T11:44:14.238Z,99.90
2023-02-03T11:46:43.119Z,99.90
2023-02-03T11:49:36.553Z,99.90
2023-02-03T11:52:17.726Z,99.90
2023-02-03T11:54:56.525Z,99.90
2023-02-03T11:57:35.199Z,99.90
2023-02-03T12:00:19.937Z,99.90
2023-02-03T12:03:17.485Z,99.90
2023-02-03T12:06:15.508Z,99.90
2023-02-03T12:09:13.261Z,99.90
2023-02-03T12:12:03.750Z,99.90
2023-02-03T12:14:46.207Z,99.90
2023-02-03T12:17:28.288Z,99.90
2023-02-03T12:20:13.767Z,99.90
2023-02-03T12:22:51.565Z,99.90
2023-02-03T12:25:34.710Z,99.90
2023-02-03T12:28:27.352Z,99.90
2023-02-03T12:31:08.670Z,99.90
2023-02-03T12:33:43.419Z,99.90
2023-02-03T12:36:16.165Z,99.90
2023-02-03T12:38:52.059Z,99.90
2023-02-03T12:41:25.560Z,99.90
2023-02-03T12:43:59.398Z,99.90
2023-02-03T12:46:30.923Z,99.90
2023-02-03T12:49:04.225Z,99.90
2023-02-03T12:51:40.253Z,99.90
2023-02-03T12:54:21.361Z,99.90
2023-02-03T12:56:54.832Z,99.90
2023-02-03T12:59:25.423Z,99.90
2023-02-03T13:01:58.709Z,99.90
2023-02-03T13:04:34.884Z,99.90
2023-02-03T13:07:09.520Z,99.90
2023-02-03T13:09:42.953Z,99.90
2023-02-03T13:12:15.313Z,99.90
2023-02-03T13:14:47.687Z,99.90
2023-02-03T13:17:20.556Z,99.90
2023-02-03T13:19:51.883Z,99.90
2023-02-03T13:22:23.671Z,99.90
2023-02-03T13:25:00.024Z,99.90
2023-02-03T13:27:47.159Z,99.90
2023-02-03T13:30:57.520Z,99.90
2023-02-03T13:34:19.172Z,99.90
2023-02-03T13:37:08.192Z,99.90
2023-02-03T13:39:59.758Z,99.90
2023-02-03T13:42:30.527Z,99.90
2023-02-03T13:45:03.533Z,99.90
2023-02-03T13:47:33.082Z,99.90
2023-02-03T13:50:06.043Z,99.90
2023-02-03T13:52:37.529Z,99.90
2023-02-03T13:55:09.510Z,99.90
2023-02-03T13:57:40.264Z,99.90
2023-02-03T14:00:32.277Z,99.90
2023-02-03T14:03:00.340Z,99.90
2023-02-03T14:05:43.035Z,99.90
2023-02-03T14:08:53.740Z,99.90
2023-02-03T14:11:51.284Z,99.90
2023-02-03T14:14:45.384Z,99.90
2023-02-03T14:17:58.169Z,99.90
2023-02-03T14:20:51.279Z,99.90
2023-02-03T14:23:39.966Z,99.90
2023-02-03T14:26:25.312Z,99.90
2023-02-03T14:28:55.522Z,99.90
2023-02-03T14:31:25.002Z,99.90
2023-02-03T14:34:16.535Z,99.90
2023-02-03T14:36:49.341Z,99.90
2023-02-03T14:39:48.679Z,99.90
2023-02-03T14:42:49.424Z,99.90
2023-02-03T14:45:46.151Z,99.90
2023-02-03T14:48:33.211Z,99.90
2023-02-03T14:51:11.956Z,99.90
2023-02-03T14:53:57.656Z,99.90
2023-02-03T14:57:00.352Z,99.90
2023-02-03T14:59:38.136Z,99.90
2023-02-03T15:02:15.850Z,99.90
2023-02-03T15:04:45.633Z,99.90
2023-02-03T15:07:35.508Z,99.90
2023-02-03T15:10:03.641Z,99.90
2023-02-03T15:12:38.595Z,99.90
2023-02-03T15:15:22.403Z,99.90
2023-02-03T15:17:53.154Z,99.90
2023-02-03T15:20:34.720Z,99.90
2023-02-03T15:23:03.158Z,99.90
2023-02-03T15:25:33.090Z,99.90
2023-02-03T15:28:17.122Z,99.90
2023-02-03T15:30:46.107Z,99.90
2023-02-03T15:33:20.363Z,99.90
2023-02-03T15:35:51.375Z,99.90
2023-02-03T15:38:24.773Z,99.90
2023-02-03T15:40:57.742Z,99.90
2023-02-03T15:43:31.238Z,99.90
2023-02-03T15:46:06.301Z,99.90
2023-02-03T15:48:39.587Z,99.90
2023-02-03T15:51:12.780Z,99.90
2023-02-03T15:53:49.554Z,99.90
2023-02-03T15:56:23.575Z,99.90
2023-02-03T15:58:54.978Z,99.90
2023-02-03T16:01:26.225Z,99.90
2023-02-03T16:03:58.033Z,99.90
2023-02-03T16:06:30.379Z,99.90
2023-02-03T16:09:00.683Z,99.90
2023-02-03T16:11:34.709Z,99.90
2023-02-03T16:14:05.052Z,99.90
2023-02-03T16:16:38.219Z,99.90
2023-02-03T16:19:14.543Z,99.90
2023-02-03T16:21:57.204Z,99.90
2023-02-03T16:24:38.688Z,99.90
2023-02-03T16:27:32.903Z,99.90
2023-02-03T16:30:42.042Z,99.90
2023-02-03T16:33:34.179Z,99.90
2023-02-03T16:36:29.417Z,99.90
2023-02-03T16:39:16.583Z,99.90
2023-02-03T16:42:01.860Z,99.90
2023-02-03T16:44:47.271Z,99.90
2023-02-03T16:47:43.468Z,99.90
2023-02-03T16:50:38.555Z,99.90
2023-02-03T16:53:13.521Z,99.90
2023-02-03T16:55:41.806Z,99.90
2023-02-03T16:58:11.868Z,99.90
2023-02-03T17:00:42.991Z,99.90
2023-02-03T17:03:13.044Z,99.90
2023-02-03T17:05:42.950Z,99.90
2023-02-03T17:08:14.153Z,99.90
2023-02-03T17:10:44.478Z,99.90
2023-02-03T17:13:13.019Z,99.90
2023-02-03T17:15:42.104Z,99.90
2023-02-03T17:18:10.319Z,99.90
2023-02-03T17:20:38.405Z,99.90
2023-02-03T17:23:06.367Z,99.90
2023-02-03T17:25:36.862Z,99.90
2023-02-03T17:28:05.486Z,99.90
2023-02-03T17:30:35.271Z,99.90
2023-02-03T17:33:11.889Z,99.90
2023-02-03T17:35:41.459Z,99.90
2023-02-03T17:38:09.849Z,99.90
2023-02-03T17:54:34.645Z,99.90
2023-02-03T17:57:04.046Z,99.90
2023-02-03T17:59:34.883Z,99.90
2023-02-03T18:02:02.996Z,99.90
2023-02-03T18:04:31.356Z,99.90
2023-02-03T18:06:59.433Z,99.90
2023-02-03T18:09:27.596Z,99.90
2023-02-03T18:11:55.580Z,99.90
2023-02-03T18:14:25.868Z,99.90
2023-02-03T18:16:53.917Z,99.90
2023-02-03T18:19:22.884Z,99.90
2023-02-03T18:21:51.730Z,99.90
2023-02-03T18:24:22.396Z,99.90
2023-02-03T18:26:52.328Z,99.90
2023-02-03T18:29:20.813Z,99.90
2023-02-03T18:31:50.224Z,99.90
2023-02-03T18:34:18.733Z,99.90
2023-02-03T18:36:47.275Z,99.90
2023-02-03T18:39:16.372Z,99.90
2023-02-03T18:41:44.394Z,99.90
2023-02-03T18:44:12.412Z,99.90
2023-02-03T18:46:40.434Z,99.90
2023-02-03T18:49:10.419Z,99.90
2023-02-03T18:51:38.524Z,99.90
2023-02-03T18:54:06.759Z,99.90
2023-02-03T18:56:35.933Z,99.90
2023-02-03T18:59:08.653Z,99.90
2023-02-03T19:01:38.647Z,99.90
2023-02-03T19:04:06.894Z,99.90
2023-02-03T19:06:36.791Z,99.90
2023-02-03T19:09:05.830Z,99.90
2023-02-03T19:11:34.992Z,99.90
2023-02-03T19:14:03.241Z,99.90
2023-02-03T19:16:31.435Z,99.90
2023-02-03T19:18:59.392Z,99.90
2023-02-03T19:21:27.480Z,99.90
2023-02-03T19:23:56.830Z,99.90
2023-02-03T19:26:24.864Z,99.90
2023-02-03T19:28:52.820Z,99.90
2023-02-03T19:31:20.878Z,99.90
2023-02-03T19:33:49.169Z,99.90
2023-02-03T19:36:17.160Z,99.90
2023-02-03T19:38:45.075Z,99.90
2023-02-03T19:41:14.394Z,99.90
2023-02-03T19:43:42.315Z,99.90
2023-02-03T19:46:10.436Z,99.90
2023-02-03T19:48:39.562Z,99.90
2023-02-03T19:51:07.965Z,99.90
2023-02-03T19:53:36.428Z,99.90
2023-02-03T19:56:04.697Z,99.90
2023-02-03T19:58:33.982Z,99.90
2023-02-03T20:01:02.129Z,99.90
2023-02-03T20:03:30.087Z,99.90
2023-02-03T20:05:58.500Z,99.90
2023-02-03T20:08:26.725Z,99.90
2023-02-03T20:10:54.642Z,99.90
2023-02-03T20:13:22.587Z,99.90
2023-02-03T20:15:52.029Z,99.90
2023-02-03T20:18:21.243Z,99.90
2023-02-03T20:20:51.299Z,99.90
2023-02-03T20:23:19.182Z,99.90
2023-02-03T20:25:50.125Z,99.90
2023-02-03T20:28:18.602Z,99.90
2023-02-03T20:30:46.758Z,99.90
2023-02-03T20:33:16.145Z,99.90
2023-02-03T20:35:44.079Z,99.90
2023-02-03T20:38:12.118Z,99.90
2023-02-03T20:40:40.176Z,99.90
2023-02-03T20:43:16.411Z,99.90
2023-02-03T20:45:44.681Z,99.90
2023-02-03T20:48:13.656Z,99.90
2023-02-03T20:50:47.234Z,99.90
2023-02-03T20:53:17.455Z,99.90
2023-02-03T20:55:45.639Z,99.90
2023-02-03T20:58:18.921Z,99.90
2023-02-03T21:00:49.729Z,99.90
2023-02-03T21:03:36.985Z,99.90
2023-02-03T21:06:14.208Z,99.90
2023-02-03T21:08:43.104Z,99.90
2023-02-03T21:11:14.454Z,99.90
2023-02-03T21:13:46.907Z,99.90
2023-02-03T21:16:18.421Z,99.90
2023-02-03T21:18:50.317Z,99.90
2023-02-03T21:21:24.990Z,99.90
2023-02-03T21:23:54.174Z,99.90
2023-02-03T21:26:24.684Z,99.90
2023-02-03T21:28:54.909Z,99.90
2023-02-03T21:31:26.273Z,99.90
2023-02-03T21:33:55.039Z,99.90
2023-02-03T21:36:26.309Z,99.90
2023-02-03T21:38:56.668Z,99.90
2023-02-03T21:41:26.483Z,99.90
2023-02-03T21:43:56.803Z,99.90
2023-02-03T21:46:26.901Z,99.90
2023-02-03T21:48:55.990Z,99.90
2023-02-03T21:51:27.910Z,99.90
2023-02-03T21:53:57.548Z,99.90
2023-02-03T21:56:27.156Z,99.90
2023-02-03T21:58:58.869Z,99.90
2023-02-03T22:01:28.284Z,99.90
2023-02-03T22:03:58.811Z,99.90
2023-02-03T22:06:34.859Z,99.90
2023-02-03T22:09:02.803Z,99.90
2023-02-03T22:11:33.144Z,99.90
2023-02-03T22:14:01.087Z,99.90
2023-02-03T22:16:29.679Z,99.90
2023-02-03T22:18:57.825Z,99.90
2023-02-03T22:21:26.358Z,99.80
2023-02-03T22:23:56.001Z,99.50
2023-02-03T22:26:24.181Z,99.20
2023-02-03T22:28:52.085Z,99.30
2023-02-03T22:31:20.768Z,98.90
2023-02-03T22:33:48.958Z,98.40
2023-02-03T22:36:17.028Z,98.50
2023-02-03T22:38:44.931Z,98.30
2023-02-03T22:41:14.248Z,98.40
2023-02-03T22:43:42.376Z,98.10
2023-02-03T22:46:10.450Z,98.20
2023-02-03T22:48:38.362Z,98.50
2023-02-03T22:51:06.564Z,98.50
2023-02-03T22:53:34.753Z,98.70
2023-02-03T22:56:02.843Z,98.90
2023-02-03T22:58:32.163Z,99.20
2023-02-03T23:01:00.109Z,99.40
2023-02-03T23:03:31.888Z,99.30
2023-02-03T23:05:59.920Z,99.50
2023-02-03T23:08:27.809Z,99.50
2023-02-03T23:10:56.174Z,99.40
2023-02-03T23:13:24.516Z,99.20
2023-02-03T23:15:53.823Z,99.40
2023-02-03T23:18:21.750Z,99.50
2023-02-03T23:20:49.667Z,99.40
2023-02-03T23:23:17.600Z,99.60
2023-02-03T23:25:45.543Z,99.40
2023-02-03T23:28:13.540Z,99.20
2023-02-03T23:30:41.467Z,99.20
2023-02-03T23:33:11.145Z,99.00
2023-02-03T23:35:46.893Z,98.80
2023-02-03T23:38:15.814Z,98.90
2023-02-03T23:40:44.615Z,98.70
2023-02-03T23:43:12.666Z,98.40
2023-02-03T23:45:40.596Z,98.30
2023-02-03T23:48:10.178Z,98.30
2023-02-03T23:50:38.474Z,98.20
2023-02-03T23:53:06.427Z,98.10
2023-02-03T23:55:36.230Z,98.00
2023-02-03T23:58:04.963Z,98.20
